Time;durP1;ratioP1;P1;durP2;ratioP2;P2;SDS_P1;SDS_P2;PMS_P1;PMS_P2;Temp;Humidity;BMP_temperature;BMP_pressure;BME280_temperature;BME280_humidity;BME280_pressure;Samples;Min_cycle;Max_cycle;Signal;HPM_P1;HPM_P2
2023/09/30 00:01:59;;;;;;;1.15;1.05;;;;;;;14.45;75.72;100091.72;5076730;28;20496;-65
2023/09/30 00:04:29;;;;;;;3.13;1.83;;;;;;;14.46;75.39;100090.88;5076828;28;20045;-65
2023/09/30 00:06:59;;;;;;;0.95;0.85;;;;;;;14.51;75.55;100089.09;5076585;28;20110;-65
2023/09/30 00:09:28;;;;;;;2.33;0.95;;;;;;;14.36;75.16;100078.13;5076496;28;20408;-64
2023/09/30 00:11:57;;;;;;;0.73;0.73;;;;;;;14.25;75.25;100091.03;5076449;28;20036;-64
2023/09/30 00:14:25;;;;;;;3.20;2.03;;;;;;;14.29;75.68;100085.00;5075455;28;20041;-64
2023/09/30 00:16:56;;;;;;;2.23;1.50;;;;;;;14.32;75.87;100090.16;5077187;28;20041;-64
2023/09/30 00:19:26;;;;;;;0.68;0.68;;;;;;;14.24;75.33;100101.31;5076320;28;20052;-65
2023/09/30 00:21:55;;;;;;;0.73;0.73;;;;;;;14.16;75.66;100093.66;5076598;28;20115;-64
2023/09/30 00:24:24;;;;;;;1.53;1.03;;;;;;;14.19;76.02;100096.22;5076423;28;20143;-64
2023/09/30 00:26:53;;;;;;;2.40;1.83;;;;;;;14.21;76.03;100081.66;5076780;28;20124;-65
2023/09/30 00:29:21;;;;;;;1.42;0.93;;;;;;;14.11;76.36;100086.00;5076701;28;20074;-64
2023/09/30 00:31:50;;;;;;;0.70;0.70;;;;;;;14.13;76.31;100086.00;5076093;28;20117;-65
2023/09/30 00:34:21;;;;;;;3.00;1.47;;;;;;;14.10;75.83;100083.47;5076303;28;20041;-65
2023/09/30 00:36:50;;;;;;;1.10;1.08;;;;;;;14.15;76.57;100081.72;5076049;28;20063;-65
2023/09/30 00:39:19;;;;;;;1.45;1.02;;;;;;;14.20;76.13;100074.81;5075611;28;20068;-65
2023/09/30 00:41:48;;;;;;;0.90;0.90;;;;;;;14.20;75.92;100074.81;5074682;28;20093;-64
2023/09/30 00:44:16;;;;;;;1.13;1.02;;;;;;;14.28;75.94;100062.75;5074440;28;20052;-64
2023/09/30 00:46:46;;;;;;;1.13;1.02;;;;;;;14.26;75.89;100059.34;5075966;28;20041;-64
2023/09/30 00:49:18;;;;;;;;;;;;;;;14.20;75.96;100064.56;5076506;28;20048;-65
2023/09/30 00:51:50;;;;;;;1.35;1.25;;;;;;;14.11;76.34;100059.47;5074785;28;19920;-64
2023/09/30 00:54:19;;;;;;;4.30;1.27;;;;;;;14.04;76.45;100055.25;5075721;28;20098;-64
2023/09/30 00:56:52;;;;;;;0.70;0.70;;;;;;;13.90;76.58;100064.81;5075864;28;20123;-64
2023/09/30 00:59:21;;;;;;;1.08;0.98;;;;;;;13.92;76.64;100057.94;5074775;28;20071;-64
2023/09/30 01:01:50;;;;;;;0.90;0.85;;;;;;;13.84;76.76;100059.72;5075556;28;20037;-64
2023/09/30 01:04:20;;;;;;;1.50;1.40;;;;;;;13.85;76.61;100058.84;5074595;28;20127;-64
2023/09/30 01:06:51;;;;;;;0.90;0.80;;;;;;;13.91;76.90;100061.38;5074180;28;20041;-64
2023/09/30 01:09:21;;;;;;;1.58;1.48;;;;;;;13.89;76.88;100068.25;5076307;28;20040;-64
2023/09/30 01:11:51;;;;;;;2.00;1.67;;;;;;;13.93;76.57;100055.38;5074511;28;20072;-64
2023/09/30 01:14:31;;;;;;;1.40;1.23;;;;;;;13.97;76.93;100056.19;5075382;28;20036;-64
2023/09/30 01:17:00;;;;;;;1.67;1.58;;;;;;;13.88;76.66;100061.41;5075196;28;20048;-64
2023/09/30 01:19:29;;;;;;;1.30;1.20;;;;;;;13.81;76.44;100050.34;5075495;28;20044;-64
2023/09/30 01:22:00;;;;;;;1.23;1.13;;;;;;;13.70;76.95;100056.41;5073988;28;20119;-64
2023/09/30 01:24:30;;;;;;;3.22;1.67;;;;;;;13.62;77.30;100047.91;5075446;28;20123;-64
2023/09/30 01:26:59;;;;;;;2.03;1.65;;;;;;;13.57;77.38;100062.47;5075206;28;20398;-64
2023/09/30 01:29:28;;;;;;;1.38;1.27;;;;;;;13.62;77.37;100061.59;5075025;28;20043;-64
2023/09/30 01:31:57;;;;;;;1.42;1.33;;;;;;;13.73;77.61;100056.38;5073722;28;20044;-64
2023/09/30 01:34:27;;;;;;;1.35;1.10;;;;;;;13.81;77.53;100060.59;5073731;28;20090;-64
2023/09/30 01:36:56;;;;;;;0.93;0.85;;;;;;;13.85;77.62;100061.41;5075177;28;20485;-64
2023/09/30 01:39:26;;;;;;;1.00;1.00;;;;;;;13.87;77.46;100064.81;5074861;28;20070;-65
2023/09/30 01:41:55;;;;;;;3.25;0.98;;;;;;;13.90;77.28;100064.81;5074616;28;20342;-64
2023/09/30 01:44:25;;;;;;;1.03;0.93;;;;;;;13.87;77.39;100064.81;5074714;28;20075;-65
2023/09/30 01:46:54;;;;;;;1.20;0.90;;;;;;;13.85;77.42;100056.28;5073832;28;20715;-64
2023/09/30 01:49:24;;;;;;;0.65;0.65;;;;;;;13.93;77.16;100057.09;5073971;28;20047;-64
2023/09/30 01:51:53;;;;;;;0.70;0.70;;;;;;;13.87;77.49;100054.56;5074258;28;20048;-64
2023/09/30 01:54:22;;;;;;;0.70;0.70;;;;;;;13.91;77.62;100056.25;5075041;28;20037;-66
2023/09/30 01:56:53;;;;;;;0.95;0.93;;;;;;;13.99;77.32;100057.03;5073213;28;20040;-64
2023/09/30 01:59:22;;;;;;;1.65;1.08;;;;;;;14.03;76.88;100056.16;5073227;28;20563;-64
2023/09/30 02:01:51;;;;;;;0.90;0.80;;;;;;;14.06;77.34;100056.09;5073159;28;20037;-64
2023/09/30 02:04:20;;;;;;;2.17;1.38;;;;;;;14.02;77.17;100062.13;5074901;28;20032;-64
2023/09/30 02:06:49;;;;;;;0.68;0.68;;;;;;;14.03;77.19;100066.41;5074483;28;20045;-64
2023/09/30 02:09:18;;;;;;;1.13;1.07;;;;;;;14.11;76.81;100059.47;5073575;28;20033;-64
2023/09/30 02:11:47;;;;;;;0.80;0.80;;;;;;;14.18;76.63;100061.13;5072993;28;20289;-64
2023/09/30 02:14:18;;;;;;;1.17;1.00;;;;;;;14.20;76.77;100054.28;5073131;28;20040;-64
2023/09/30 02:16:47;;;;;;;1.67;1.40;;;;;;;14.23;76.19;100056.81;5074669;28;20044;-64
2023/09/30 02:19:15;;;;;;;1.50;1.30;;;;;;;14.19;76.33;100062.84;5073947;28;20052;-65
2023/09/30 02:21:44;;;;;;;1.63;1.50;;;;;;;14.05;76.10;100059.56;5073160;28;20098;-64
2023/09/30 02:24:15;;;;;;;2.00;1.38;;;;;;;13.87;77.07;100060.53;5072956;28;20117;-64
2023/09/30 02:26:44;;;;;;;0.65;0.65;;;;;;;13.92;77.29;100052.81;5072950;28;20396;-64
2023/09/30 02:29:13;;;;;;;3.75;1.75;;;;;;;13.95;77.32;100057.91;5074177;28;20446;-64
2023/09/30 02:31:43;;;;;;;1.37;1.27;;;;;;;13.99;77.34;100057.03;5073822;28;20127;-65
2023/09/30 02:34:12;;;;;;;1.58;1.05;;;;;;;13.99;77.38;100055.31;5073802;28;20095;-64
2023/09/30 02:36:42;;;;;;;2.50;2.00;;;;;;;14.04;77.02;100052.69;5074560;28;20396;-64
2023/09/30 02:39:11;;;;;;;0.93;0.93;;;;;;;14.01;77.14;100052.75;5072514;28;20064;-65
2023/09/30 02:41:40;;;;;;;0.98;0.77;;;;;;;14.05;77.35;100064.69;5073987;28;20458;-66
2023/09/30 02:44:09;;;;;;;1.10;1.10;;;;;;;14.10;77.15;100060.38;5072432;28;20539;-66
2023/09/30 02:46:38;;;;;;;1.57;1.00;;;;;;;14.12;77.23;100053.50;5073541;28;20289;-66
2023/09/30 02:49:09;;;;;;;1.02;0.95;;;;;;;14.08;77.47;100049.25;5073525;28;20044;-64
2023/09/30 02:51:38;;;;;;;1.67;1.50;;;;;;;14.08;77.38;100049.25;5073904;28;20044;-65
2023/09/30 02:54:07;;;;;;;0.60;0.60;;;;;;;14.06;77.57;100056.09;5073500;28;20042;-64
2023/09/30 02:56:36;;;;;;;1.55;1.13;;;;;;;14.13;78.01;100055.22;5074345;28;20044;-64
2023/09/30 02:59:07;;;;;;;1.17;0.75;;;;;;;14.18;77.73;100045.72;5072253;28;20058;-64
2023/09/30 03:01:36;;;;;;;2.40;1.90;;;;;;;14.22;77.56;100051.69;5072644;28;20149;-64
2023/09/30 03:04:07;;;;;;;2.53;1.48;;;;;;;14.28;78.00;100054.19;5073465;28;20049;-64
2023/09/30 03:06:38;;;;;;;2.00;1.67;;;;;;;14.26;77.98;100054.22;5073306;28;20044;-63
2023/09/30 03:09:09;;;;;;;3.08;1.48;;;;;;;14.28;77.97;100057.59;5073395;28;20048;-64
2023/09/30 03:11:38;;;;;;;0.63;0.63;;;;;;;14.26;77.66;100046.50;5073326;28;20114;-64
2023/09/30 03:14:08;;;;;;;1.40;1.30;;;;;;;14.29;77.54;100049.06;5073363;28;20040;-65
2023/09/30 03:16:38;;;;;;;1.40;1.30;;;;;;;14.26;77.47;100046.50;5074265;28;20461;-65
2023/09/30 03:19:08;;;;;;;1.23;0.90;;;;;;;14.20;77.92;100044.00;5073335;28;20056;-65
2023/09/30 03:21:39;;;;;;;1.08;1.00;;;;;;;14.21;78.05;100038.00;5073421;28;20408;-64
2023/09/30 03:24:08;;;;;;;1.20;0.88;;;;;;;14.20;78.57;100033.75;5073259;28;20055;-64
2023/09/30 03:26:40;;;;;;;0.63;0.63;;;;;;;14.23;78.18;100038.81;5073131;28;20036;-64
2023/09/30 03:29:10;;;;;;;2.47;1.05;;;;;;;14.30;78.44;100039.66;5073802;28;20051;-65
2023/09/30 03:31:38;;;;;;;1.73;1.63;;;;;;;14.35;78.24;100031.03;5073120;28;20037;-64
2023/09/30 03:34:08;;;;;;;1.10;1.00;;;;;;;14.38;78.35;100032.72;5073432;28;20083;-65
2023/09/30 03:36:40;;;;;;;0.80;0.80;;;;;;;14.39;78.25;100034.44;5073120;28;20053;-65
2023/09/30 03:39:14;;;;;;;0.77;0.75;;;;;;;14.40;77.57;100036.97;5073134;28;20051;-64
2023/09/30 03:41:44;;;;;;;0.88;0.88;;;;;;;14.38;77.70;100037.84;5073394;28;20102;-64
2023/09/30 03:44:13;;;;;;;23.05;1.55;;;;;;;14.34;77.52;100031.91;5073011;28;20057;-64
2023/09/30 03:46:42;;;;;;;0.93;0.93;;;;;;;14.38;77.74;100025.88;5073627;28;20049;-64
2023/09/30 03:49:12;;;;;;;1.33;1.17;;;;;;;14.41;78.00;100022.44;5073303;28;20484;-64
2023/09/30 03:51:42;;;;;;;2.15;1.35;;;;;;;14.38;78.34;100015.59;5073182;28;20044;-64
2023/09/30 03:54:12;;;;;;;0.98;0.88;;;;;;;14.37;78.23;100023.34;5073227;28;20048;-64
2023/09/30 03:56:41;;;;;;;;;;;;;;;14.39;78.19;100030.16;5073803;28;20044;-64
2023/09/30 03:59:10;;;;;;;34.78;1.88;;;;;;;14.29;78.29;100025.09;5072928;28;19927;-64
2023/09/30 04:01:40;;;;;;;1.27;1.00;;;;;;;14.24;78.54;100031.97;5073105;28;20522;-64
2023/09/30 04:04:09;;;;;;;1.25;1.02;;;;;;;14.20;79.00;100028.63;5073134;28;20487;-64
2023/09/30 04:06:39;;;;;;;1.77;1.15;;;;;;;14.22;78.52;100026.88;5072744;28;20076;-64
2023/09/30 04:09:11;;;;;;;0.77;0.70;;;;;;;14.27;78.68;100021.69;5072817;28;20060;-65
2023/09/30 04:11:42;;;;;;;1.48;1.38;;;;;;;14.30;79.04;100026.81;5072860;28;20098;-65
2023/09/30 04:14:11;;;;;;;1.33;1.15;;;;;;;14.40;78.81;100026.72;5073828;28;20051;-65
2023/09/30 04:16:41;;;;;;;1.58;1.48;;;;;;;14.46;78.77;100026.66;5076465;28;20127;-65
2023/09/30 04:19:10;;;;;;;;;;;;;;;14.44;78.48;100019.84;5077058;28;20049;-66
2023/09/30 04:21:39;;;;;;;2.00;1.27;;;;;;;14.47;78.52;100020.63;5076350;28;19920;-66
2023/09/30 04:24:10;;;;;;;1.25;1.15;;;;;;;14.57;78.93;100022.25;5076312;28;20036;-64
2023/09/30 04:26:40;;;;;;;1.23;1.13;;;;;;;14.66;78.39;100014.41;5076466;28;20405;-65
2023/09/30 04:29:10;;;;;;;0.70;0.70;;;;;;;14.69;78.95;100018.66;5076455;28;20041;-64
2023/09/30 04:31:41;;;;;;;3.45;1.27;;;;;;;14.71;79.11;100016.94;5076960;28;20379;-64
2023/09/30 04:34:10;;;;;;;1.20;1.10;;;;;;;14.74;78.87;100022.91;5076043;28;20075;-65
2023/09/30 04:36:39;;;;;;;1.35;1.25;;;;;;;14.72;78.96;100019.50;5076082;28;20047;-65
2023/09/30 04:39:12;;;;;;;1.52;1.42;;;;;;;14.65;79.37;100023.00;5076038;28;20098;-65
2023/09/30 04:41:42;;;;;;;1.45;1.35;;;;;;;14.66;79.69;100019.56;5075961;28;20098;-65
2023/09/30 04:44:11;;;;;;;2.60;1.77;;;;;;;14.70;79.65;100026.38;5075556;28;20535;-65
2023/09/30 04:46:40;;;;;;;0.70;0.70;;;;;;;14.78;79.95;100029.69;5076078;28;20032;-65
2023/09/30 04:49:09;;;;;;;1.27;1.17;;;;;;;14.85;79.88;100025.34;5075783;28;20290;-65
2023/09/30 04:51:39;;;;;;;1.57;1.47;;;;;;;14.89;79.91;100031.28;5075818;28;20128;-65
2023/09/30 04:54:10;;;;;;;1.48;1.08;;;;;;;14.98;79.44;100038.88;5074535;28;20458;-65
2023/09/30 04:56:39;;;;;;;0.95;0.93;;;;;;;14.99;79.52;100043.16;5075699;28;20131;-65
2023/09/30 04:59:08;;;;;;;1.17;1.10;;;;;;;14.98;79.07;100052.56;5075918;28;20524;-64
2023/09/30 05:01:37;;;;;;;1.58;1.10;;;;;;;14.96;79.46;100058.59;5075561;28;20043;-65
2023/09/30 05:04:06;;;;;;;0.60;0.60;;;;;;;14.94;80.29;100053.50;5075589;28;20113;-64
2023/09/30 05:06:35;;;;;;;1.77;1.40;;;;;;;14.99;80.22;100056.00;5074289;28;20055;-64
2023/09/30 05:09:07;;;;;;;1.10;1.00;;;;;;;15.01;79.97;100062.84;5075339;28;20047;-65
2023/09/30 05:11:37;;;;;;;1.23;1.02;;;;;;;15.02;80.13;100073.97;5075755;28;20562;-65
2023/09/30 05:14:06;;;;;;;1.20;1.10;;;;;;;15.02;79.91;100071.41;5075370;28;20118;-65
2023/09/30 05:16:35;;;;;;;1.57;1.00;;;;;;;15.08;80.17;100071.31;5075258;28;20535;-65
2023/09/30 05:19:04;;;;;;;0.57;0.55;;;;;;;15.04;79.78;100064.50;5075239;28;20041;-65
2023/09/30 05:21:35;;;;;;;3.38;1.80;;;;;;;15.02;80.02;100069.66;5075283;28;20052;-64
2023/09/30 05:24:06;;;;;;;1.50;1.40;;;;;;;15.03;79.68;100078.22;5075247;28;20051;-65
2023/09/30 05:26:35;;;;;;;1.95;1.42;;;;;;;15.06;79.65;100081.63;5074286;28;20050;-65
2023/09/30 05:29:05;;;;;;;4.50;2.10;;;;;;;15.06;79.83;100098.75;5074720;28;20052;-67
2023/09/30 05:31:34;;;;;;;0.80;0.80;;;;;;;15.01;80.18;100103.09;5075356;28;20116;-64
2023/09/30 05:34:04;;;;;;;1.63;1.38;;;;;;;15.02;80.36;100105.66;5075135;28;20069;-65
2023/09/30 05:36:34;;;;;;;1.58;1.42;;;;;;;15.08;80.62;100099.59;5075204;28;20045;-66
2023/09/30 05:39:04;;;;;;;1.00;0.80;;;;;;;15.12;81.13;100102.09;5074998;28;20051;-66
2023/09/30 05:41:33;;;;;;;2.40;1.40;;;;;;;15.16;81.46;100110.63;5074148;28;20036;-67
2023/09/30 05:44:02;;;;;;;1.10;1.00;;;;;;;15.19;81.77;100113.16;5074499;28;20504;-67
2023/09/30 05:46:33;;;;;;;2.33;1.23;;;;;;;15.20;82.03;100120.00;5073642;28;20052;-68
2023/09/30 05:49:07;;;;;;;3.10;1.95;;;;;;;15.11;82.16;100125.28;5074566;28;20128;-67
2023/09/30 05:51:35;;;;;;;2.60;1.15;;;;;;;15.00;82.69;100127.09;5074611;28;20049;-67
2023/09/30 05:54:05;;;;;;;1.17;1.07;;;;;;;14.92;82.71;100128.91;5074572;28;20484;-67
2023/09/30 05:56:33;;;;;;;1.00;0.95;;;;;;;14.80;82.73;100123.91;5074521;28;20044;-67
2023/09/30 05:59:03;;;;;;;2.53;1.50;;;;;;;14.68;83.36;100125.72;5074422;28;20064;-66
2023/09/30 06:01:33;;;;;;;0.57;0.57;;;;;;;14.63;83.23;100119.81;5074411;28;20032;-66
2023/09/30 06:04:02;;;;;;;1.73;1.60;;;;;;;14.61;83.50;100118.13;5074339;28;20052;-66
2023/09/30 06:06:32;;;;;;;1.30;1.10;;;;;;;14.56;83.28;100115.59;5073909;28;20044;-66
2023/09/30 06:09:01;;;;;;;2.08;1.85;;;;;;;14.50;83.67;100131.06;5062522;28;20048;-67
2023/09/30 06:11:30;;;;;;;1.20;1.10;;;;;;;14.42;83.87;100126.88;5073973;28;20037;-67
2023/09/30 06:14:00;;;;;;;1.33;1.10;;;;;;;14.49;83.74;100129.34;5073686;28;20098;-66
2023/09/30 06:16:31;;;;;;;1.17;1.08;;;;;;;14.60;83.78;100148.09;5073928;28;20059;-66
2023/09/30 06:19:03;;;;;;;1.17;1.00;;;;;;;14.67;84.18;100154.88;5062641;28;20041;-66
2023/09/30 06:21:34;;;;;;;3.30;2.08;;;;;;;14.73;83.99;100164.25;5071836;28;20059;-66
2023/09/30 06:24:03;;;;;;;2.30;2.10;;;;;;;14.81;83.81;100166.72;5073329;28;20102;-66
2023/09/30 06:26:32;;;;;;;1.65;1.55;;;;;;;14.77;83.70;100165.91;5073435;28;20045;-67
2023/09/30 06:29:01;;;;;;;2.20;1.88;;;;;;;14.73;83.89;100159.94;5073306;28;20040;-65
2023/09/30 06:31:30;;;;;;;1.10;1.00;;;;;;;14.66;83.99;100158.28;5073828;28;20047;-65
2023/09/30 06:34:00;;;;;;;2.37;1.60;;;;;;;14.64;83.75;100152.31;5074097;28;20044;-65
2023/09/30 06:36:30;;;;;;;7.20;1.67;;;;;;;14.64;84.25;100160.03;5074299;28;20510;-65
2023/09/30 06:39:00;;;;;;;1.70;1.42;;;;;;;14.71;84.22;100161.69;5073642;28;20044;-66
2023/09/30 06:41:30;;;;;;;3.15;2.10;;;;;;;14.78;84.50;100153.03;5073753;28;20048;-65
2023/09/30 06:43:59;;;;;;;1.48;1.17;;;;;;;14.91;83.99;100163.19;5073444;28;20049;-66
2023/09/30 06:46:28;;;;;;;1.30;1.10;;;;;;;14.97;83.83;100160.56;5073573;28;20051;-65
2023/09/30 06:48:56;;;;;;;1.53;1.43;;;;;;;15.03;83.88;100153.63;5073432;28;20049;-66
2023/09/30 06:51:26;;;;;;;2.53;2.20;;;;;;;14.99;83.78;100158.84;5073904;28;20060;-65
2023/09/30 06:53:56;;;;;;;1.85;1.60;;;;;;;15.10;84.02;100159.56;5074102;28;20044;-66
2023/09/30 06:56:25;;;;;;;1.15;1.05;;;;;;;15.29;83.68;100161.03;5073698;28;20447;-67
2023/09/30 06:58:54;;;;;;;2.72;2.35;;;;;;;15.29;83.14;100156.75;5073506;28;20040;-65
2023/09/30 07:01:23;;;;;;;1.50;1.40;;;;;;;15.41;83.24;100163.47;5073526;28;20032;-65
2023/09/30 07:03:52;;;;;;;1.77;1.63;;;;;;;15.38;82.76;100160.91;5074174;28;20458;-66
2023/09/30 07:06:24;;;;;;;1.55;1.40;;;;;;;15.37;82.26;100169.53;5073289;28;20044;-65
2023/09/30 07:08:54;;;;;;;2.35;1.70;;;;;;;15.43;82.17;100169.44;5073334;28;20037;-65
2023/09/30 07:11:32;;;;;;;1.55;1.45;;;;;;;15.54;81.63;100174.50;5073391;28;20033;-65
2023/09/30 07:14:02;;;;;;;2.22;1.55;;;;;;;15.65;81.65;100178.63;5073745;28;20053;-65
2023/09/30 07:16:31;;;;;;;1.25;1.15;;;;;;;15.65;81.28;100176.03;5073292;28;20036;-65
2023/09/30 07:19:00;;;;;;;1.58;1.35;;;;;;;15.68;80.93;100176.00;5073316;28;20049;-65
2023/09/30 07:21:29;;;;;;;1.57;1.47;;;;;;;15.68;81.02;100180.31;5073331;28;20048;-66
2023/09/30 07:23:58;;;;;;;1.37;1.20;;;;;;;15.72;81.11;100187.97;5073231;28;20044;-65
2023/09/30 07:26:27;;;;;;;1.00;0.90;;;;;;;15.78;81.00;100193.03;5073255;28;20102;-66
2023/09/30 07:28:58;;;;;;;1.50;1.30;;;;;;;15.82;80.29;100189.53;5073684;28;20048;-65
2023/09/30 07:31:27;;;;;;;3.00;2.25;;;;;;;15.82;80.69;100192.13;5073255;28;20045;-66
2023/09/30 07:33:56;;;;;;;1.33;1.23;;;;;;;15.83;80.31;100195.53;5073169;28;20041;-66
2023/09/30 07:36:25;;;;;;;1.75;1.50;;;;;;;15.84;80.58;100181.78;5073033;28;20276;-66
2023/09/30 07:38:54;;;;;;;0.60;0.60;;;;;;;15.88;79.90;100184.28;5073457;28;20123;-66
2023/09/30 07:41:23;;;;;;;3.22;1.23;;;;;;;15.82;80.27;100189.53;5073303;28;20045;-65
2023/09/30 07:43:51;;;;;;;0.90;0.87;;;;;;;15.78;80.14;100182.75;5072877;28;20040;-67
2023/09/30 07:46:22;;;;;;;2.00;1.42;;;;;;;15.80;80.01;100190.44;5073111;28;20036;-67
2023/09/30 07:48:51;;;;;;;1.45;1.13;;;;;;;15.81;80.24;100182.69;5072017;28;20484;-66
2023/09/30 07:51:20;;;;;;;1.33;1.17;;;;;;;15.88;80.56;100184.28;5076892;28;20055;-66
2023/09/30 07:53:49;;;;;;;1.30;1.20;;;;;;;15.88;80.56;100188.63;5076831;28;20041;-66
2023/09/30 07:56:17;;;;;;;1.87;1.50;;;;;;;15.87;80.57;100198.06;5077158;28;20488;-67
2023/09/30 07:58:46;;;;;;;1.23;1.10;;;;;;;15.90;81.23;100192.88;5076600;28;20519;-67
2023/09/30 08:01:17;;;;;;;1.45;1.35;;;;;;;15.94;81.48;100193.66;5076729;28;20274;-67
2023/09/30 08:03:48;;;;;;;1.30;1.20;;;;;;;15.93;81.42;100192.81;5076699;28;20106;-67
2023/09/30 08:06:17;;;;;;;1.05;0.95;;;;;;;15.99;81.72;100197.88;5076573;28;20055;-67
2023/09/30 08:08:47;;;;;;;0.80;0.80;;;;;;;16.03;81.95;100204.69;5076804;28;20101;-66
2023/09/30 08:11:16;;;;;;;3.05;1.75;;;;;;;16.08;82.19;100205.47;5076766;28;20285;-67
2023/09/30 08:13:45;;;;;;;4.45;2.45;;;;;;;16.18;82.17;100202.75;5076455;28;20032;-67
2023/09/30 08:16:14;;;;;;;1.93;1.40;;;;;;;16.16;82.17;100200.19;5076342;28;20493;-67
2023/09/30 08:18:45;;;;;;;1.30;1.20;;;;;;;16.19;82.33;100199.31;5076318;28;20047;-67
2023/09/30 08:21:15;;;;;;;3.10;2.20;;;;;;;16.20;82.50;100196.69;5076289;28;20492;-67
2023/09/30 08:23:45;;;;;;;2.15;1.77;;;;;;;16.23;82.67;100201.81;5076541;28;20036;-67
2023/09/30 08:26:14;;;;;;;2.07;1.50;;;;;;;16.27;82.68;100202.63;5076479;28;20045;-67
2023/09/30 08:28:42;;;;;;;1.53;1.37;;;;;;;16.39;82.58;100202.41;5076388;28;20332;-67
2023/09/30 08:31:11;;;;;;;2.15;1.45;;;;;;;16.44;82.92;100188.59;5076137;28;20041;-67
2023/09/30 08:33:43;;;;;;;0.90;0.88;;;;;;;16.51;82.93;100187.63;5076330;28;20094;-67
2023/09/30 08:36:13;;;;;;;1.75;1.63;;;;;;;16.52;82.49;100180.78;5076565;28;20473;-67
2023/09/30 08:38:44;;;;;;;2.53;1.45;;;;;;;16.59;82.49;100184.94;5074987;28;20127;-67
2023/09/30 08:41:25;;;;;;;0.93;0.93;;;;;;;16.65;82.18;100187.44;5075919;28;20056;-67
2023/09/30 08:43:59;;;;;;;2.55;1.17;;;;;;;16.74;82.25;100189.84;5075701;28;20052;-67
2023/09/30 08:46:31;;;;;;;2.42;2.22;;;;;;;16.77;81.83;100203.50;5076175;28;20102;-67
2023/09/30 08:49:02;;;;;;;1.63;1.40;;;;;;;16.83;81.51;100197.41;5076102;28;20052;-67
2023/09/30 08:51:32;;;;;;;1.48;1.38;;;;;;;16.91;81.73;100203.28;5076172;28;20106;-66
2023/09/30 08:54:03;;;;;;;2.90;1.38;;;;;;;16.93;81.38;100193.78;5075951;28;20055;-66
2023/09/30 08:56:33;;;;;;;1.98;1.70;;;;;;;16.90;81.22;100188.69;5076232;28;20040;-67
2023/09/30 08:59:04;;;;;;;2.10;1.90;;;;;;;16.93;81.30;100196.38;5075633;28;20072;-66
2023/09/30 09:01:33;;;;;;;3.03;1.88;;;;;;;16.96;81.36;100185.16;5075441;28;20054;-66
2023/09/30 09:04:03;;;;;;;1.23;1.13;;;;;;;17.01;81.33;100188.50;5075684;28;20070;-66
2023/09/30 09:06:32;;;;;;;2.15;1.48;;;;;;;17.12;81.29;100195.16;5075482;28;20063;-66
2023/09/30 09:09:17;;;;;;;1.67;1.57;;;;;;;17.15;81.69;100187.34;5075231;28;20500;-66
2023/09/30 09:11:46;;;;;;;1.92;1.73;;;;;;;17.20;81.74;100185.50;5075680;28;20044;-64
2023/09/30 09:14:15;;;;;;;3.58;2.03;;;;;;;17.21;81.75;100182.06;5075327;28;20052;-64
2023/09/30 09:16:53;;;;;;;1.55;1.17;;;;;;;17.47;81.84;100198.78;5075958;28;20059;-66
2023/09/30 09:19:24;;;;;;;3.17;1.97;;;;;;;17.86;81.53;100197.94;5075313;28;20095;-65
2023/09/30 09:21:58;;;;;;;1.83;1.23;;;;;;;18.25;80.81;100199.63;5075399;28;20279;-65
2023/09/30 09:24:33;;;;;;;2.40;1.25;;;;;;;18.49;80.31;100196.50;5075150;28;20051;-66
2023/09/30 09:27:07;;;;;;;1.05;0.98;;;;;;;18.62;79.48;100187.53;5075080;28;20053;-66
2023/09/30 09:29:36;;;;;;;2.55;1.83;;;;;;;18.64;78.93;100188.31;5075004;28;20067;-65
2023/09/30 09:32:12;;;;;;;1.63;1.42;;;;;;;18.61;78.37;100180.66;5075043;28;20044;-65
2023/09/30 09:34:43;;;;;;;1.23;1.13;;;;;;;18.73;77.91;100182.94;5075495;28;20051;-65
2023/09/30 09:37:16;;;;;;;7.15;2.33;;;;;;;18.82;77.46;100168.06;5075224;28;20488;-65
2023/09/30 09:39:55;;;;;;;1.95;1.63;;;;;;;18.84;77.23;100163.69;5075104;28;20404;-65
2023/09/30 09:42:29;;;;;;;1.17;1.08;;;;;;;18.83;76.85;100162.00;5074833;28;20045;-66
2023/09/30 09:45:02;;;;;;;1.00;0.90;;;;;;;18.80;76.43;100160.34;5074732;28;20068;-66
2023/09/30 09:47:34;;;;;;;1.50;1.40;;;;;;;18.78;76.07;100171.63;5074941;28;20052;-65
2023/09/30 09:50:05;;;;;;;3.03;2.25;;;;;;;18.85;76.04;100162.81;5075127;28;20040;-65
2023/09/30 09:52:35;;;;;;;1.70;1.27;;;;;;;19.01;75.94;100170.13;5074590;28;20047;-66
2023/09/30 09:55:09;;;;;;;2.00;1.17;;;;;;;19.38;75.49;100164.81;5074526;28;20049;-65
2023/09/30 09:57:38;;;;;;;1.48;1.38;;;;;;;19.50;74.55;100167.03;5074839;28;20135;-65
2023/09/30 10:00:13;;;;;;;1.17;1.08;;;;;;;19.41;74.57;100171.63;5074420;28;20504;-66
2023/09/30 10:02:43;;;;;;;2.22;1.50;;;;;;;19.46;74.23;100165.41;5074696;28;20044;-66
2023/09/30 10:05:13;;;;;;;2.03;1.75;;;;;;;19.70;73.36;100167.28;5074571;28;20442;-65
2023/09/30 10:07:48;;;;;;;1.10;1.00;;;;;;;19.79;73.10;100169.63;5074686;28;20075;-66
2023/09/30 10:10:20;;;;;;;1.85;1.35;;;;;;;19.93;72.66;100175.22;5074282;28;20094;-66
2023/09/30 10:12:50;;;;;;;1.27;1.17;;;;;;;20.05;72.12;100171.41;5073835;28;20091;-66
2023/09/30 10:15:42;;;;;;;2.63;2.42;;;;;;;20.40;71.25;100171.13;5074189;28;20036;-66
2023/09/30 10:18:13;;;;;;;3.33;1.70;;;;;;;20.67;70.85;100166.78;5070765;28;20428;-66
2023/09/30 10:20:47;;;;;;;1.23;0.93;;;;;;;20.67;69.80;100174.56;5074675;28;20131;-65
2023/09/30 10:23:24;;;;;;;1.45;1.27;;;;;;;20.48;69.32;100178.66;5074345;28;20138;-65
2023/09/30 10:26:17;;;;;;;1.25;1.15;;;;;;;20.37;69.02;100176.41;5074118;28;20040;-65
2023/09/30 10:28:49;;;;;;;6.18;2.53;;;;;;;20.32;68.76;100180.06;5073944;28;20063;-65
2023/09/30 10:31:20;;;;;;;3.22;2.10;;;;;;;20.40;69.37;100183.25;5073784;28;20098;-66
2023/09/30 10:34:15;;;;;;;1.25;1.15;;;;;;;20.47;69.12;100183.00;5073882;28;20053;-66
2023/09/30 10:36:45;;;;;;;2.38;1.48;;;;;;;20.46;68.68;100172.69;5071988;28;20111;-67
2023/09/30 10:39:17;;;;;;;1.60;0.90;;;;;;;20.54;68.20;100173.25;5073748;28;20048;-66
2023/09/30 10:41:54;;;;;;;1.20;0.93;;;;;;;20.77;67.50;100170.75;5074559;28;20412;-66
2023/09/30 10:44:35;;;;;;;1.42;1.33;;;;;;;21.00;66.82;100178.56;5073513;28;20052;-65
2023/09/30 10:47:33;;;;;;;0.63;0.63;;;;;;;20.96;66.21;100174.41;5073675;28;20132;-65
2023/09/30 10:50:02;;;;;;;1.17;1.08;;;;;;;21.05;65.61;100174.09;5070671;28;20193;-66
2023/09/30 10:52:32;;;;;;;1.70;1.60;;;;;;;21.07;65.14;100172.28;5073577;28;20040;-66
2023/09/30 10:55:06;;;;;;;0.70;0.70;;;;;;;21.18;64.47;100161.53;5073681;28;20040;-66
2023/09/30 10:57:37;;;;;;;5.38;1.75;;;;;;;21.26;64.41;100164.69;5073499;28;20049;-65
2023/09/30 11:00:11;;;;;;;1.65;0.95;;;;;;;21.22;63.74;100158.78;5074133;28;20483;-66
2023/09/30 11:02:52;;;;;;;1.08;1.00;;;;;;;21.28;63.33;100163.72;5073455;28;20135;-66
2023/09/30 11:05:23;;;;;;;2.03;1.05;;;;;;;21.40;62.84;100165.06;5073510;28;20511;-66
2023/09/30 11:08:16;;;;;;;1.48;1.10;;;;;;;21.55;62.82;100171.41;5073746;28;20040;-66
2023/09/30 11:10:50;;;;;;;1.25;1.15;;;;;;;21.75;63.25;100159.34;5073317;28;20053;-66
2023/09/30 11:13:22;;;;;;;2.60;1.67;;;;;;;21.73;62.79;100160.31;5073747;28;20052;-66
2023/09/30 11:16:02;;;;;;;1.35;1.00;;;;;;;21.52;62.60;100161.16;5073573;28;20079;-66
2023/09/30 11:18:31;;;;;;;0.93;0.90;;;;;;;21.35;62.60;100157.41;5073575;28;20049;-66
2023/09/30 11:21:08;;;;;;;1.83;1.45;;;;;;;21.30;62.54;100156.75;5073583;28;20465;-65
2023/09/30 11:23:38;;;;;;;1.67;1.15;;;;;;;21.28;62.85;100158.53;5073215;28;20040;-65
2023/09/30 11:26:07;;;;;;;1.45;1.33;;;;;;;21.24;63.31;100156.09;5077979;28;20484;-65
2023/09/30 11:28:42;;;;;;;1.60;1.40;;;;;;;21.19;63.48;100158.88;5077521;28;20507;-65
2023/09/30 11:31:14;;;;;;;1.65;1.50;;;;;;;21.24;63.98;100161.31;5077306;28;20378;-66
2023/09/30 11:33:52;;;;;;;1.73;1.10;;;;;;;21.21;64.55;100156.25;5077581;28;20044;-66
2023/09/30 11:36:22;;;;;;;0.82;0.80;;;;;;;21.19;64.28;100153.69;5077264;28;20051;-66
2023/09/30 11:38:52;;;;;;;;;;;;;;;21.21;64.20;100151.88;5077841;28;20037;-65
2023/09/30 11:41:22;;;;;;;2.80;1.40;;;;;;;21.34;64.20;100147.09;5077448;28;19920;-65
2023/09/30 11:44:04;;;;;;;1.05;0.90;;;;;;;21.56;64.78;100149.72;5077168;28;20425;-65